CheckWX is a tool to help pilots better visualize weather data.  It is not intended as a substitute for an official pre-flight weather briefing.

02:20:53 UTC

FALE TAF
King Shaka International Airport
Durban, South Africa
TAF FALE 182200Z 1900/2006 34003KT 9999 BKN025 TX29/1912Z TN22/1904Z FM191000 04015KT CAVOK FM191600 02005KT 9999 SCT025

Mar-19@
00:00 UTC

Mar-19 @ 00:00 UTC

Mar-19@
10:00 UTC

Mar-19 @ 10:00 UTC

TAF FALE 182200Z 1900/2006 34003KT 9999 BKN025 TX29/1912Z TN22/1904Z
Wind
  • 340° at 3 KTS
Cloud Levels
  • Broken at 2,500' AGL

Mar-19@
10:00 UTC

Mar-19 @ 10:00 UTC

Mar-19@
16:00 UTC

Mar-19 @ 16:00 UTC

FM191000 04015KT CAVOK

From

From Standard forecast or significant change

Wind
  • 040° at 15 KTS
Conditions
No significant weather
Cloud Levels
  • No significant clouds

Mar-19@
16:00 UTC

Mar-19 @ 16:00 UTC

Mar-20@
06:00 UTC

Mar-20 @ 06:00 UTC

FM191600 02005KT 9999 SCT025

From

From Standard forecast or significant change

Wind
  • 020° at 5 KTS
Cloud Levels
  • Scattered at 2,500' AGL